sensor_id;sensor_type;location;lat;lon;timestamp;temperature;humidity
38241;DHT22;24037;49.536;8.500;2023-12-20T00:01:43;4.90;99.90
38241;DHT22;24037;49.536;8.500;2023-12-20T00:04:09;4.90;99.90
38241;DHT22;24037;49.536;8.500;2023-12-20T00:06:35;4.90;99.90
38241;DHT22;24037;49.536;8.500;2023-12-20T00:09:01;4.90;99.90
38241;DHT22;24037;49.536;8.500;2023-12-20T00:11:27;4.90;99.90
38241;DHT22;24037;49.536;8.500;2023-12-20T00:13:53;4.90;99.90
38241;DHT22;24037;49.536;8.500;2023-12-20T00:16:20;4.90;99.90
38241;DHT22;24037;49.536;8.500;2023-12-20T00:18:46;4.90;99.90
38241;DHT22;24037;49.536;8.500;2023-12-20T00:21:12;4.90;99.90
38241;DHT22;24037;49.536;8.500;2023-12-20T00:23:38;4.90;99.90
38241;DHT22;24037;49.536;8.500;2023-12-20T00:26:04;4.90;99.90
38241;DHT22;24037;49.536;8.500;2023-12-20T00:28:30;4.90;99.90
38241;DHT22;24037;49.536;8.500;2023-12-20T00:30:57;4.90;99.90
38241;DHT22;24037;49.536;8.500;2023-12-20T00:33:23;4.90;99.90
38241;DHT22;24037;49.536;8.500;2023-12-20T00:35:49;4.90;99.90
38241;DHT22;24037;49.536;8.500;2023-12-20T00:38:15;4.90;99.90
38241;DHT22;24037;49.536;8.500;2023-12-20T00:40:41;4.90;99.90
38241;DHT22;24037;49.536;8.500;2023-12-20T00:43:07;4.90;99.90
38241;DHT22;24037;49.536;8.500;2023-12-20T00:45:33;4.90;99.90
38241;DHT22;24037;49.536;8.500;2023-12-20T00:47:59;4.90;99.90
38241;DHT22;24037;49.536;8.500;2023-12-20T00:50:26;4.90;99.90
38241;DHT22;24037;49.536;8.500;2023-12-20T00:52:52;4.90;99.90
38241;DHT22;24037;49.536;8.500;2023-12-20T00:55:20;4.90;99.90
38241;DHT22;24037;49.536;8.500;2023-12-20T00:57:46;5.00;99.90
38241;DHT22;24037;49.536;8.500;2023-12-20T01:00:13;5.00;99.90
38241;DHT22;24037;49.536;8.500;2023-12-20T01:02:39;4.90;99.90
38241;DHT22;24037;49.536;8.500;2023-12-20T01:05:06;5.00;99.90
38241;DHT22;24037;49.536;8.500;2023-12-20T01:07:33;5.00;99.90
38241;DHT22;24037;49.536;8.500;2023-12-20T01:09:59;5.00;99.90
38241;DHT22;24037;49.536;8.500;2023-12-20T01:12:26;5.00;99.90
38241;DHT22;24037;49.536;8.500;2023-12-20T01:14:52;5.00;99.90
38241;DHT22;24037;49.536;8.500;2023-12-20T01:17:18;4.90;99.90
38241;DHT22;24037;49.536;8.500;2023-12-20T01:19:44;4.90;99.90
38241;DHT22;24037;49.536;8.500;2023-12-20T01:22:10;5.00;99.90
38241;DHT22;24037;49.536;8.500;2023-12-20T01:24:36;5.00;99.90
38241;DHT22;24037;49.536;8.500;2023-12-20T01:27:03;5.00;99.90
38241;DHT22;24037;49.536;8.500;2023-12-20T01:29:29;5.00;99.90
38241;DHT22;24037;49.536;8.500;2023-12-20T01:31:55;5.00;99.90
38241;DHT22;24037;49.536;8.500;2023-12-20T01:34:21;5.00;99.90
38241;DHT22;24037;49.536;8.500;2023-12-20T01:36:47;5.00;99.90
38241;DHT22;24037;49.536;8.500;2023-12-20T01:39:13;5.00;99.90
38241;DHT22;24037;49.536;8.500;2023-12-20T01:41:40;4.90;99.90
38241;DHT22;24037;49.536;8.500;2023-12-20T01:44:06;5.00;99.90
38241;DHT22;24037;49.536;8.500;2023-12-20T01:46:32;5.00;99.90
38241;DHT22;24037;49.536;8.500;2023-12-20T01:48:58;5.00;99.90
38241;DHT22;24037;49.536;8.500;2023-12-20T01:51:25;5.00;99.90
38241;DHT22;24037;49.536;8.500;2023-12-20T01:53:55;5.00;99.90
38241;DHT22;24037;49.536;8.500;2023-12-20T01:56:23;5.00;99.90
38241;DHT22;24037;49.536;8.500;2023-12-20T01:58:50;5.00;99.90
38241;DHT22;24037;49.536;8.500;2023-12-20T02:01:16;5.00;99.90
38241;DHT22;24037;49.536;8.500;2023-12-20T02:03:42;5.00;99.90
38241;DHT22;24037;49.536;8.500;2023-12-20T02:06:09;5.00;99.90
38241;DHT22;24037;49.536;8.500;2023-12-20T02:08:36;5.00;99.90
38241;DHT22;24037;49.536;8.500;2023-12-20T02:11:02;5.00;99.90
38241;DHT22;24037;49.536;8.500;2023-12-20T02:13:28;5.00;99.90
38241;DHT22;24037;49.536;8.500;2023-12-20T02:15:55;5.00;99.90
38241;DHT22;24037;49.536;8.500;2023-12-20T02:18:21;5.00;99.90
38241;DHT22;24037;49.536;8.500;2023-12-20T02:20:47;5.00;99.90
38241;DHT22;24037;49.536;8.500;2023-12-20T02:23:13;4.90;99.90
38241;DHT22;24037;49.536;8.500;2023-12-20T02:25:39;5.00;99.90
38241;DHT22;24037;49.536;8.500;2023-12-20T02:28:06;4.90;99.90
38241;DHT22;24037;49.536;8.500;2023-12-20T02:30:32;4.90;99.90
38241;DHT22;24037;49.536;8.500;2023-12-20T02:33:00;4.90;99.90
38241;DHT22;24037;49.536;8.500;2023-12-20T02:35:27;4.90;99.90
38241;DHT22;24037;49.536;8.500;2023-12-20T02:37:53;4.90;99.90
38241;DHT22;24037;49.536;8.500;2023-12-20T02:40:19;4.90;99.90
38241;DHT22;24037;49.536;8.500;2023-12-20T02:42:45;4.90;99.90
38241;DHT22;24037;49.536;8.500;2023-12-20T02:45:11;4.90;99.90
38241;DHT22;24037;49.536;8.500;2023-12-20T02:47:37;4.80;99.90
38241;DHT22;24037;49.536;8.500;2023-12-20T02:50:03;4.90;99.90
38241;DHT22;24037;49.536;8.500;2023-12-20T02:52:29;4.80;99.90
38241;DHT22;24037;49.536;8.500;2023-12-20T02:54:56;4.80;99.90
38241;DHT22;24037;49.536;8.500;2023-12-20T02:57:22;4.80;99.90
38241;DHT22;24037;49.536;8.500;2023-12-20T02:59:48;4.80;99.90
38241;DHT22;24037;49.536;8.500;2023-12-20T03:02:14;4.80;99.90
38241;DHT22;24037;49.536;8.500;2023-12-20T03:04:41;4.80;99.90
38241;DHT22;24037;49.536;8.500;2023-12-20T03:07:07;4.80;99.90
38241;DHT22;24037;49.536;8.500;2023-12-20T03:09:33;4.80;99.90
38241;DHT22;24037;49.536;8.500;2023-12-20T03:11:59;4.80;99.90
38241;DHT22;24037;49.536;8.500;2023-12-20T03:14:25;4.80;99.90
38241;DHT22;24037;49.536;8.500;2023-12-20T03:16:51;4.80;99.90
38241;DHT22;24037;49.536;8.500;2023-12-20T03:19:18;4.80;99.90
38241;DHT22;24037;49.536;8.500;2023-12-20T03:21:45;4.80;99.90
38241;DHT22;24037;49.536;8.500;2023-12-20T03:24:11;4.80;99.90
38241;DHT22;24037;49.536;8.500;2023-12-20T03:26:37;4.70;99.90
38241;DHT22;24037;49.536;8.500;2023-12-20T03:29:04;4.70;99.90
38241;DHT22;24037;49.536;8.500;2023-12-20T03:31:30;4.80;99.90
38241;DHT22;24037;49.536;8.500;2023-12-20T03:33:56;4.70;99.90
38241;DHT22;24037;49.536;8.500;2023-12-20T03:36:22;4.70;99.90
38241;DHT22;24037;49.536;8.500;2023-12-20T03:38:48;4.70;99.90
38241;DHT22;24037;49.536;8.500;2023-12-20T03:41:14;4.70;99.90
38241;DHT22;24037;49.536;8.500;2023-12-20T03:43:40;4.80;99.90
38241;DHT22;24037;49.536;8.500;2023-12-20T03:46:10;4.80;99.90
38241;DHT22;24037;49.536;8.500;2023-12-20T03:48:36;4.80;99.90
38241;DHT22;24037;49.536;8.500;2023-12-20T03:51:02;4.80;99.90
38241;DHT22;24037;49.536;8.500;2023-12-20T03:53:28;4.80;99.90
38241;DHT22;24037;49.536;8.500;2023-12-20T03:55:55;4.80;99.90
38241;DHT22;24037;49.536;8.500;2023-12-20T03:58:21;4.80;99.90
38241;DHT22;24037;49.536;8.500;2023-12-20T04:00:47;4.80;99.90
38241;DHT22;24037;49.536;8.500;2023-12-20T04:03:13;4.80;99.90
38241;DHT22;24037;49.536;8.500;2023-12-20T04:05:40;4.80;99.90
38241;DHT22;24037;49.536;8.500;2023-12-20T04:08:07;4.80;99.90
38241;DHT22;24037;49.536;8.500;2023-12-20T04:10:33;4.80;99.90
38241;DHT22;24037;49.536;8.500;2023-12-20T04:13:00;4.80;99.90
38241;DHT22;24037;49.536;8.500;2023-12-20T04:15:26;4.80;99.90
38241;DHT22;24037;49.536;8.500;2023-12-20T04:17:52;4.80;99.90
38241;DHT22;24037;49.536;8.500;2023-12-20T04:20:18;4.80;99.90
38241;DHT22;24037;49.536;8.500;2023-12-20T04:22:44;4.80;99.90
38241;DHT22;24037;49.536;8.500;2023-12-20T04:25:10;4.80;99.90
38241;DHT22;24037;49.536;8.500;2023-12-20T04:27:37;4.80;99.90
38241;DHT22;24037;49.536;8.500;2023-12-20T04:30:03;4.80;99.90
38241;DHT22;24037;49.536;8.500;2023-12-20T04:32:29;4.80;99.90
38241;DHT22;24037;49.536;8.500;2023-12-20T04:34:55;4.80;99.90
38241;DHT22;24037;49.536;8.500;2023-12-20T04:37:22;4.80;99.90
38241;DHT22;24037;49.536;8.500;2023-12-20T04:39:48;4.80;99.90
38241;DHT22;24037;49.536;8.500;2023-12-20T04:42:14;4.90;99.90
38241;DHT22;24037;49.536;8.500;2023-12-20T04:44:40;4.90;99.90
38241;DHT22;24037;49.536;8.500;2023-12-20T04:47:06;4.90;99.90
38241;DHT22;24037;49.536;8.500;2023-12-20T04:49:32;4.90;99.90
38241;DHT22;24037;49.536;8.500;2023-12-20T04:51:59;5.00;99.90
38241;DHT22;24037;49.536;8.500;2023-12-20T04:54:25;5.00;99.90
38241;DHT22;24037;49.536;8.500;2023-12-20T04:56:51;5.00;99.90
38241;DHT22;24037;49.536;8.500;2023-12-20T04:59:17;4.90;99.90
38241;DHT22;24037;49.536;8.500;2023-12-20T05:01:43;4.90;99.90
38241;DHT22;24037;49.536;8.500;2023-12-20T05:04:09;5.00;99.90
38241;DHT22;24037;49.536;8.500;2023-12-20T05:06:35;5.00;99.90
38241;DHT22;24037;49.536;8.500;2023-12-20T05:09:02;5.00;99.90
38241;DHT22;24037;49.536;8.500;2023-12-20T05:11:28;5.00;99.90
38241;DHT22;24037;49.536;8.500;2023-12-20T05:13:54;5.00;99.90
38241;DHT22;24037;49.536;8.500;2023-12-20T05:16:20;5.00;99.90
38241;DHT22;24037;49.536;8.500;2023-12-20T05:18:48;5.00;99.90
38241;DHT22;24037;49.536;8.500;2023-12-20T05:21:16;5.10;99.90
38241;DHT22;24037;49.536;8.500;2023-12-20T05:23:42;5.10;99.90
38241;DHT22;24037;49.536;8.500;2023-12-20T05:26:08;5.10;99.90
38241;DHT22;24037;49.536;8.500;2023-12-20T05:28:34;5.20;99.90
38241;DHT22;24037;49.536;8.500;2023-12-20T05:31:00;5.20;99.90
38241;DHT22;24037;49.536;8.500;2023-12-20T05:33:27;5.20;99.90
38241;DHT22;24037;49.536;8.500;2023-12-20T05:35:53;5.30;99.90
38241;DHT22;24037;49.536;8.500;2023-12-20T05:38:19;5.30;99.90
38241;DHT22;24037;49.536;8.500;2023-12-20T05:40:46;5.30;99.90
38241;DHT22;24037;49.536;8.500;2023-12-20T05:43:12;5.30;99.90
38241;DHT22;24037;49.536;8.500;2023-12-20T05:45:38;5.40;99.90
38241;DHT22;24037;49.536;8.500;2023-12-20T05:48:04;5.40;99.90
38241;DHT22;24037;49.536;8.500;2023-12-20T05:50:31;5.40;99.90
38241;DHT22;24037;49.536;8.500;2023-12-20T05:52:57;5.50;99.90
38241;DHT22;24037;49.536;8.500;2023-12-20T05:55:23;5.40;99.90
38241;DHT22;24037;49.536;8.500;2023-12-20T05:57:49;5.40;99.90
38241;DHT22;24037;49.536;8.500;2023-12-20T06:00:16;5.50;99.90
38241;DHT22;24037;49.536;8.500;2023-12-20T06:02:42;5.50;99.90
38241;DHT22;24037;49.536;8.500;2023-12-20T06:05:09;5.50;99.90
38241;DHT22;24037;49.536;8.500;2023-12-20T06:07:35;5.50;99.90
38241;DHT22;24037;49.536;8.500;2023-12-20T06:10:01;5.50;99.90
38241;DHT22;24037;49.536;8.500;2023-12-20T06:12:27;5.50;99.90
38241;DHT22;24037;49.536;8.500;2023-12-20T06:14:54;5.50;99.90
38241;DHT22;24037;49.536;8.500;2023-12-20T06:17:21;5.30;99.90
38241;DHT22;24037;49.536;8.500;2023-12-20T06:19:47;5.30;99.90
38241;DHT22;24037;49.536;8.500;2023-12-20T06:22:15;5.30;99.90
38241;DHT22;24037;49.536;8.500;2023-12-20T06:24:41;5.20;99.90
38241;DHT22;24037;49.536;8.500;2023-12-20T06:27:07;5.10;99.90
38241;DHT22;24037;49.536;8.500;2023-12-20T06:29:34;5.00;99.90
38241;DHT22;24037;49.536;8.500;2023-12-20T06:32:00;5.00;99.90
38241;DHT22;24037;49.536;8.500;2023-12-20T06:34:27;4.80;99.90
38241;DHT22;24037;49.536;8.500;2023-12-20T06:36:53;4.70;99.90
38241;DHT22;24037;49.536;8.500;2023-12-20T06:39:19;4.60;99.90
38241;DHT22;24037;49.536;8.500;2023-12-20T06:41:45;4.50;99.90
38241;DHT22;24037;49.536;8.500;2023-12-20T06:44:11;4.40;99.90
38241;DHT22;24037;49.536;8.500;2023-12-20T06:46:37;4.40;99.90
38241;DHT22;24037;49.536;8.500;2023-12-20T06:49:04;4.40;99.90
38241;DHT22;24037;49.536;8.500;2023-12-20T06:51:30;4.40;99.90
38241;DHT22;24037;49.536;8.500;2023-12-20T06:53:56;4.30;99.90
38241;DHT22;24037;49.536;8.500;2023-12-20T06:56:23;4.30;99.90
38241;DHT22;24037;49.536;8.500;2023-12-20T06:58:49;4.20;99.90
38241;DHT22;24037;49.536;8.500;2023-12-20T07:01:16;4.10;99.90
38241;DHT22;24037;49.536;8.500;2023-12-20T07:03:42;4.00;99.90
38241;DHT22;24037;49.536;8.500;2023-12-20T07:06:09;4.00;99.90
38241;DHT22;24037;49.536;8.500;2023-12-20T07:08:35;3.90;99.90
38241;DHT22;24037;49.536;8.500;2023-12-20T07:11:01;3.90;99.90
38241;DHT22;24037;49.536;8.500;2023-12-20T07:13:27;3.80;99.90
38241;DHT22;24037;49.536;8.500;2023-12-20T07:15:53;3.70;99.90
38241;DHT22;24037;49.536;8.500;2023-12-20T07:18:20;3.60;99.90
38241;DHT22;24037;49.536;8.500;2023-12-20T07:20:46;3.50;99.90
38241;DHT22;24037;49.536;8.500;2023-12-20T07:23:12;3.40;99.90
38241;DHT22;24037;49.536;8.500;2023-12-20T07:25:39;3.40;99.90
38241;DHT22;24037;49.536;8.500;2023-12-20T07:28:05;3.40;99.90
38241;DHT22;24037;49.536;8.500;2023-12-20T07:30:31;3.40;99.90
38241;DHT22;24037;49.536;8.500;2023-12-20T07:32:58;3.30;99.90
38241;DHT22;24037;49.536;8.500;2023-12-20T07:35:24;3.30;99.90
38241;DHT22;24037;49.536;8.500;2023-12-20T07:37:51;3.40;99.90
38241;DHT22;24037;49.536;8.500;2023-12-20T07:40:17;3.40;99.90
38241;DHT22;24037;49.536;8.500;2023-12-20T07:42:43;3.50;99.90
38241;DHT22;24037;49.536;8.500;2023-12-20T07:45:10;3.50;99.90
38241;DHT22;24037;49.536;8.500;2023-12-20T07:47:37;3.40;99.90
38241;DHT22;24037;49.536;8.500;2023-12-20T07:50:03;3.40;99.90
38241;DHT22;24037;49.536;8.500;2023-12-20T07:52:30;3.40;99.90
38241;DHT22;24037;49.536;8.500;2023-12-20T07:54:56;3.50;99.90
38241;DHT22;24037;49.536;8.500;2023-12-20T07:57:23;3.50;99.90
38241;DHT22;24037;49.536;8.500;2023-12-20T07:59:49;3.50;99.90
38241;DHT22;24037;49.536;8.500;2023-12-20T08:02:15;3.50;99.90
38241;DHT22;24037;49.536;8.500;2023-12-20T08:04:41;3.60;99.90
38241;DHT22;24037;49.536;8.500;2023-12-20T08:07:07;3.60;99.90
38241;DHT22;24037;49.536;8.500;2023-12-20T08:09:33;3.60;99.90
38241;DHT22;24037;49.536;8.500;2023-12-20T08:12:02;3.70;99.90
38241;DHT22;24037;49.536;8.500;2023-12-20T08:14:29;3.70;99.90
38241;DHT22;24037;49.536;8.500;2023-12-20T08:16:55;3.80;99.90
38241;DHT22;24037;49.536;8.500;2023-12-20T08:19:21;3.90;99.90
38241;DHT22;24037;49.536;8.500;2023-12-20T08:21:47;3.90;99.90
38241;DHT22;24037;49.536;8.500;2023-12-20T08:24:13;3.90;99.90
38241;DHT22;24037;49.536;8.500;2023-12-20T08:26:39;3.90;99.90
38241;DHT22;24037;49.536;8.500;2023-12-20T08:29:05;4.00;99.90
38241;DHT22;24037;49.536;8.500;2023-12-20T08:31:32;4.00;99.90
38241;DHT22;24037;49.536;8.500;2023-12-20T08:33:58;4.00;99.90
38241;DHT22;24037;49.536;8.500;2023-12-20T08:36:24;4.10;99.90
38241;DHT22;24037;49.536;8.500;2023-12-20T08:38:50;4.20;99.90
38241;DHT22;24037;49.536;8.500;2023-12-20T08:41:17;4.40;99.90
38241;DHT22;24037;49.536;8.500;2023-12-20T08:43:43;4.50;99.90
38241;DHT22;24037;49.536;8.500;2023-12-20T08:46:10;4.60;99.90
38241;DHT22;24037;49.536;8.500;2023-12-20T08:48:36;4.60;99.90
38241;DHT22;24037;49.536;8.500;2023-12-20T08:51:03;4.70;99.90
38241;DHT22;24037;49.536;8.500;2023-12-20T08:53:30;4.80;99.90
38241;DHT22;24037;49.536;8.500;2023-12-20T08:55:56;4.90;6.10
38241;DHT22;24037;49.536;8.500;2023-12-20T08:58:27;5.00;1.00
38241;DHT22;24037;49.536;8.500;2023-12-20T09:00:54;5.00;1.00
38241;DHT22;24037;49.536;8.500;2023-12-20T09:03:20;5.10;1.00
38241;DHT22;24037;49.536;8.500;2023-12-20T09:05:46;5.20;99.90
38241;DHT22;24037;49.536;8.500;2023-12-20T09:08:12;5.30;99.90
38241;DHT22;24037;49.536;8.500;2023-12-20T09:10:38;5.40;99.90
38241;DHT22;24037;49.536;8.500;2023-12-20T09:13:04;5.60;99.90
38241;DHT22;24037;49.536;8.500;2023-12-20T09:15:31;5.60;99.90
38241;DHT22;24037;49.536;8.500;2023-12-20T09:18:00;5.50;99.90
38241;DHT22;24037;49.536;8.500;2023-12-20T09:20:26;5.50;99.90
38241;DHT22;24037;49.536;8.500;2023-12-20T09:22:53;5.70;60.10
38241;DHT22;24037;49.536;8.500;2023-12-20T09:25:19;5.80;50.70
38241;DHT22;24037;49.536;8.500;2023-12-20T09:27:45;5.90;81.90
38241;DHT22;24037;49.536;8.500;2023-12-20T09:30:12;5.80;99.90
38241;DHT22;24037;49.536;8.500;2023-12-20T09:32:38;5.90;95.20
38241;DHT22;24037;49.536;8.500;2023-12-20T09:35:05;5.90;56.40
38241;DHT22;24037;49.536;8.500;2023-12-20T09:37:32;5.90;49.60
38241;DHT22;24037;49.536;8.500;2023-12-20T09:39:58;5.90;14.20
38241;DHT22;24037;49.536;8.500;2023-12-20T09:42:37;5.90;1.00
38241;DHT22;24037;49.536;8.500;2023-12-20T09:45:08;5.80;23.70
38241;DHT22;24037;49.536;8.500;2023-12-20T09:47:35;6.00;36.40
38241;DHT22;24037;49.536;8.500;2023-12-20T09:50:02;6.20;27.20
38241;DHT22;24037;49.536;8.500;2023-12-20T09:52:29;6.40;1.00
38241;DHT22;24037;49.536;8.500;2023-12-20T09:54:57;6.60;1.00
38241;DHT22;24037;49.536;8.500;2023-12-20T09:57:23;6.60;1.00
38241;DHT22;24037;49.536;8.500;2023-12-20T09:59:50;6.60;1.00
38241;DHT22;24037;49.536;8.500;2023-12-20T10:02:16;6.50;1.00
38241;DHT22;24037;49.536;8.500;2023-12-20T10:04:47;6.40;1.00
38241;DHT22;24037;49.536;8.500;2023-12-20T10:07:13;6.40;1.00
38241;DHT22;24037;49.536;8.500;2023-12-20T10:09:40;6.40;1.00
38241;DHT22;24037;49.536;8.500;2023-12-20T10:12:08;6.40;1.00
38241;DHT22;24037;49.536;8.500;2023-12-20T10:14:34;6.40;13.20
38241;DHT22;24037;49.536;8.500;2023-12-20T10:17:04;6.30;1.00
38241;DHT22;24037;49.536;8.500;2023-12-20T10:19:31;6.40;1.00
38241;DHT22;24037;49.536;8.500;2023-12-20T10:21:59;6.40;1.00
38241;DHT22;24037;49.536;8.500;2023-12-20T10:24:28;6.40;1.00
38241;DHT22;24037;49.536;8.500;2023-12-20T10:27:08;6.40;1.00
38241;DHT22;24037;49.536;8.500;2023-12-20T10:29:35;6.40;1.00
38241;DHT22;24037;49.536;8.500;2023-12-20T10:32:24;6.50;1.00
38241;DHT22;24037;49.536;8.500;2023-12-20T10:34:51;6.50;1.00
38241;DHT22;24037;49.536;8.500;2023-12-20T10:37:18;6.60;1.00
38241;DHT22;24037;49.536;8.500;2023-12-20T10:39:52;6.60;1.00
38241;DHT22;24037;49.536;8.500;2023-12-20T10:42:23;6.60;1.00
38241;DHT22;24037;49.536;8.500;2023-12-20T10:44:51;6.60;1.00
38241;DHT22;24037;49.536;8.500;2023-12-20T10:47:17;6.70;1.00
38241;DHT22;24037;49.536;8.500;2023-12-20T10:49:45;6.70;1.00
38241;DHT22;24037;49.536;8.500;2023-12-20T10:52:12;6.80;1.00
38241;DHT22;24037;49.536;8.500;2023-12-20T10:54:40;6.70;1.00
38241;DHT22;24037;49.536;8.500;2023-12-20T10:57:06;6.70;1.00
38241;DHT22;24037;49.536;8.500;2023-12-20T10:59:39;6.60;1.00
38241;DHT22;24037;49.536;8.500;2023-12-20T11:02:07;6.60;1.00
38241;DHT22;24037;49.536;8.500;2023-12-20T11:04:55;6.60;1.00
38241;DHT22;24037;49.536;8.500;2023-12-20T11:07:38;6.60;1.00
38241;DHT22;24037;49.536;8.500;2023-12-20T11:15:15;6.60;1.00
38241;DHT22;24037;49.536;8.500;2023-12-20T11:17:45;6.60;1.00
38241;DHT22;24037;49.536;8.500;2023-12-20T11:20:12;6.50;1.00
38241;DHT22;24037;49.536;8.500;2023-12-20T11:22:40;6.50;1.00
38241;DHT22;24037;49.536;8.500;2023-12-20T11:25:17;6.50;1.00
38241;DHT22;24037;49.536;8.500;2023-12-20T11:27:44;6.50;1.00
38241;DHT22;24037;49.536;8.500;2023-12-20T11:30:11;6.60;1.00
38241;DHT22;24037;49.536;8.500;2023-12-20T11:32:37;6.60;1.00
38241;DHT22;24037;49.536;8.500;2023-12-20T11:37:38;6.80;99.90
38241;DHT22;24037;49.536;8.500;2023-12-20T11:40:13;6.90;99.90
38241;DHT22;24037;49.536;8.500;2023-12-20T11:42:50;6.90;99.90
38241;DHT22;24037;49.536;8.500;2023-12-20T11:45:19;6.80;99.90
38241;DHT22;24037;49.536;8.500;2023-12-20T11:47:49;6.80;99.90
38241;DHT22;24037;49.536;8.500;2023-12-20T11:50:22;6.80;99.90
38241;DHT22;24037;49.536;8.500;2023-12-20T11:52:49;6.80;99.90
38241;DHT22;24037;49.536;8.500;2023-12-20T11:55:15;6.90;99.90
38241;DHT22;24037;49.536;8.500;2023-12-20T11:57:43;6.90;99.90
38241;DHT22;24037;49.536;8.500;2023-12-20T12:00:10;6.90;99.90
38241;DHT22;24037;49.536;8.500;2023-12-20T12:02:39;6.90;99.90
38241;DHT22;24037;49.536;8.500;2023-12-20T12:05:06;6.80;99.90
38241;DHT22;24037;49.536;8.500;2023-12-20T12:07:34;6.80;99.90
38241;DHT22;24037;49.536;8.500;2023-12-20T12:10:01;6.80;99.90
38241;DHT22;24037;49.536;8.500;2023-12-20T12:12:27;6.80;99.90
38241;DHT22;24037;49.536;8.500;2023-12-20T12:14:54;6.80;99.90
38241;DHT22;24037;49.536;8.500;2023-12-20T12:17:22;6.80;99.90
38241;DHT22;24037;49.536;8.500;2023-12-20T12:19:49;6.80;99.90
38241;DHT22;24037;49.536;8.500;2023-12-20T12:22:15;6.80;99.90
38241;DHT22;24037;49.536;8.500;2023-12-20T12:24:47;6.80;99.90
38241;DHT22;24037;49.536;8.500;2023-12-20T12:27:13;6.80;99.90
38241;DHT22;24037;49.536;8.500;2023-12-20T12:29:40;6.80;99.90
38241;DHT22;24037;49.536;8.500;2023-12-20T12:32:07;6.80;99.90
38241;DHT22;24037;49.536;8.500;2023-12-20T12:34:35;6.80;99.90
38241;DHT22;24037;49.536;8.500;2023-12-20T12:37:01;6.80;99.90
38241;DHT22;24037;49.536;8.500;2023-12-20T12:39:29;6.70;99.90
38241;DHT22;24037;49.536;8.500;2023-12-20T12:41:56;6.70;99.90
38241;DHT22;24037;49.536;8.500;2023-12-20T12:44:25;6.70;99.90
38241;DHT22;24037;49.536;8.500;2023-12-20T12:46:51;6.70;99.90
38241;DHT22;24037;49.536;8.500;2023-12-20T12:49:20;6.70;99.90
38241;DHT22;24037;49.536;8.500;2023-12-20T12:51:49;6.60;99.90
38241;DHT22;24037;49.536;8.500;2023-12-20T12:54:15;6.60;99.90
38241;DHT22;24037;49.536;8.500;2023-12-20T12:56:43;6.60;99.90
38241;DHT22;24037;49.536;8.500;2023-12-20T12:59:09;6.70;99.90
38241;DHT22;24037;49.536;8.500;2023-12-20T13:01:36;6.70;99.90
38241;DHT22;24037;49.536;8.500;2023-12-20T13:04:02;6.80;99.90
38241;DHT22;24037;49.536;8.500;2023-12-20T13:06:32;6.80;99.90
38241;DHT22;24037;49.536;8.500;2023-12-20T13:08:58;6.80;99.90
38241;DHT22;24037;49.536;8.500;2023-12-20T13:11:24;6.80;99.90
38241;DHT22;24037;49.536;8.500;2023-12-20T13:13:51;6.90;99.90
38241;DHT22;24037;49.536;8.500;2023-12-20T13:16:17;6.90;99.90
38241;DHT22;24037;49.536;8.500;2023-12-20T13:18:43;6.90;99.90
38241;DHT22;24037;49.536;8.500;2023-12-20T13:21:09;6.90;99.90
38241;DHT22;24037;49.536;8.500;2023-12-20T13:23:36;7.00;99.90
38241;DHT22;24037;49.536;8.500;2023-12-20T13:26:02;7.00;99.90
38241;DHT22;24037;49.536;8.500;2023-12-20T13:28:29;7.00;99.90
38241;DHT22;24037;49.536;8.500;2023-12-20T13:30:55;7.00;99.90
38241;DHT22;24037;49.536;8.500;2023-12-20T13:33:21;7.00;99.90
38241;DHT22;24037;49.536;8.500;2023-12-20T13:35:47;7.00;99.90
38241;DHT22;24037;49.536;8.500;2023-12-20T13:38:13;7.00;99.90
38241;DHT22;24037;49.536;8.500;2023-12-20T13:40:40;7.00;99.90
38241;DHT22;24037;49.536;8.500;2023-12-20T13:43:06;7.00;98.90
38241;DHT22;24037;49.536;8.500;2023-12-20T13:45:32;7.00;99.90
38241;DHT22;24037;49.536;8.500;2023-12-20T13:47:59;7.00;95.90
38241;DHT22;24037;49.536;8.500;2023-12-20T13:50:25;7.00;99.90
38241;DHT22;24037;49.536;8.500;2023-12-20T13:52:52;7.00;99.90
38241;DHT22;24037;49.536;8.500;2023-12-20T13:55:18;7.00;99.90
38241;DHT22;24037;49.536;8.500;2023-12-20T13:57:48;7.00;99.90
38241;DHT22;24037;49.536;8.500;2023-12-20T14:00:14;7.10;99.90
38241;DHT22;24037;49.536;8.500;2023-12-20T14:02:41;7.10;99.90
38241;DHT22;24037;49.536;8.500;2023-12-20T14:05:08;7.10;99.90
38241;DHT22;24037;49.536;8.500;2023-12-20T14:07:36;7.10;96.20
38241;DHT22;24037;49.536;8.500;2023-12-20T14:10:03;7.10;97.30
38241;DHT22;24037;49.536;8.500;2023-12-20T14:12:29;7.00;99.90
38241;DHT22;24037;49.536;8.500;2023-12-20T14:14:55;7.00;99.90
38241;DHT22;24037;49.536;8.500;2023-12-20T14:17:22;7.00;99.70
38241;DHT22;24037;49.536;8.500;2023-12-20T14:19:48;7.00;93.20
38241;DHT22;24037;49.536;8.500;2023-12-20T14:22:14;7.00;99.90
38241;DHT22;24037;49.536;8.500;2023-12-20T14:24:43;7.10;91.80
38241;DHT22;24037;49.536;8.500;2023-12-20T14:27:09;7.10;58.90
38241;DHT22;24037;49.536;8.500;2023-12-20T14:29:35;7.20;40.10
38241;DHT22;24037;49.536;8.500;2023-12-20T14:32:02;7.10;65.50
38241;DHT22;24037;49.536;8.500;2023-12-20T14:34:29;7.00;93.40
38241;DHT22;24037;49.536;8.500;2023-12-20T14:36:56;7.00;92.20
38241;DHT22;24037;49.536;8.500;2023-12-20T14:39:22;6.90;99.90
38241;DHT22;24037;49.536;8.500;2023-12-20T14:41:49;6.90;99.90
38241;DHT22;24037;49.536;8.500;2023-12-20T14:44:15;6.80;75.20
38241;DHT22;24037;49.536;8.500;2023-12-20T14:46:42;6.80;91.00
38241;DHT22;24037;49.536;8.500;2023-12-20T14:49:09;6.80;94.90
38241;DHT22;24037;49.536;8.500;2023-12-20T14:51:35;6.80;99.90
38241;DHT22;24037;49.536;8.500;2023-12-20T14:54:03;6.80;99.90
38241;DHT22;24037;49.536;8.500;2023-12-20T14:56:29;6.80;99.90
38241;DHT22;24037;49.536;8.500;2023-12-20T14:58:55;6.90;99.90
38241;DHT22;24037;49.536;8.500;2023-12-20T15:01:21;6.80;99.90
38241;DHT22;24037;49.536;8.500;2023-12-20T15:03:48;6.80;96.10
38241;DHT22;24037;49.536;8.500;2023-12-20T15:06:14;6.90;99.90
38241;DHT22;24037;49.536;8.500;2023-12-20T15:08:41;6.80;89.40
38241;DHT22;24037;49.536;8.500;2023-12-20T15:11:07;6.70;99.90
38241;DHT22;24037;49.536;8.500;2023-12-20T15:13:33;6.60;99.90
38241;DHT22;24037;49.536;8.500;2023-12-20T15:16:00;6.60;99.90
38241;DHT22;24037;49.536;8.500;2023-12-20T15:18:26;6.60;99.90
38241;DHT22;24037;49.536;8.500;2023-12-20T15:20:52;6.60;99.90
38241;DHT22;24037;49.536;8.500;2023-12-20T15:23:18;6.60;99.90
38241;DHT22;24037;49.536;8.500;2023-12-20T15:25:45;6.50;99.90
38241;DHT22;24037;49.536;8.500;2023-12-20T15:28:12;6.50;99.90
38241;DHT22;24037;49.536;8.500;2023-12-20T15:30:38;6.60;99.90
38241;DHT22;24037;49.536;8.500;2023-12-20T15:33:04;6.50;99.90
38241;DHT22;24037;49.536;8.500;2023-12-20T15:35:31;6.50;99.90
38241;DHT22;24037;49.536;8.500;2023-12-20T15:37:57;6.50;99.90
38241;DHT22;24037;49.536;8.500;2023-12-20T15:40:24;6.40;99.90
38241;DHT22;24037;49.536;8.500;2023-12-20T15:42:50;6.30;99.90
38241;DHT22;24037;49.536;8.500;2023-12-20T15:45:16;6.40;99.90
38241;DHT22;24037;49.536;8.500;2023-12-20T15:47:43;6.40;99.90
38241;DHT22;24037;49.536;8.500;2023-12-20T15:50:11;6.40;99.90
38241;DHT22;24037;49.536;8.500;2023-12-20T15:52:37;6.40;99.90